createdAt,value
2023-04-21T00:00:03.035Z,32.79
2023-04-21T00:01:08.328Z,32.82
2023-04-21T00:02:11.247Z,32.75
2023-04-21T00:03:13.800Z,32.72
2023-04-21T00:04:17.869Z,32.58
2023-04-21T00:05:20.075Z,32.67
2023-04-21T00:06:24.871Z,32.75
2023-04-21T00:07:26.812Z,32.61
2023-04-21T00:08:28.766Z,32.82
2023-04-21T00:09:30.647Z,32.66
2023-04-21T00:10:32.579Z,32.72
2023-04-21T00:11:34.730Z,32.72
2023-04-21T00:12:37.709Z,32.77
2023-04-21T00:13:39.637Z,32.75
2023-04-21T00:14:41.852Z,32.78
2023-04-21T00:15:44.963Z,32.70
2023-04-21T00:16:47.262Z,32.68
2023-04-21T00:17:49.553Z,32.55
2023-04-21T00:18:51.405Z,32.90
2023-04-21T00:19:53.349Z,32.80
2023-04-21T00:20:55.506Z,32.58
2023-04-21T00:22:01.300Z,32.71
2023-04-21T00:23:03.865Z,32.62
2023-04-21T00:24:06.602Z,32.37
2023-04-21T00:25:09.091Z,32.53
2023-04-21T00:26:11.617Z,32.46
2023-04-21T00:27:13.761Z,32.61
2023-04-21T00:28:15.738Z,32.65
2023-04-21T00:29:18.010Z,32.50
2023-04-21T00:30:20.226Z,32.38
2023-04-21T00:31:22.126Z,32.46
2023-04-21T00:32:24.180Z,32.54
2023-04-21T00:33:26.788Z,32.22
2023-04-21T00:34:29.870Z,32.54
2023-04-21T00:35:31.719Z,32.86
2023-04-21T00:36:33.650Z,32.43
2023-04-21T00:37:35.762Z,32.28
2023-04-21T00:38:37.890Z,32.55
2023-04-21T00:39:40.026Z,32.49
2023-04-21T00:40:41.930Z,32.43
2023-04-21T00:41:43.755Z,32.41
2023-04-21T00:42:45.611Z,32.49
2023-04-21T00:44:05.933Z,32.58
2023-04-21T00:45:08.523Z,32.45
2023-04-21T00:46:10.771Z,32.48
2023-04-21T00:47:12.827Z,32.41
2023-04-21T00:48:15.281Z,32.31
2023-04-21T00:49:17.448Z,32.45
2023-04-21T00:50:19.591Z,32.68
2023-04-21T00:51:21.797Z,32.45
2023-04-21T00:52:24.771Z,32.35
2023-04-21T00:53:26.643Z,32.49
2023-04-21T00:54:28.888Z,32.40
2023-04-21T00:55:31.304Z,32.34
2023-04-21T00:56:36.026Z,32.48
2023-04-21T00:57:38.207Z,32.77
2023-04-21T00:58:42.887Z,32.39
2023-04-21T00:59:44.954Z,32.36
2023-04-21T01:00:46.860Z,32.37
2023-04-21T01:01:48.982Z,32.49
2023-04-21T01:02:51.170Z,32.38
2023-04-21T01:03:53.521Z,32.50
2023-04-21T01:04:55.902Z,32.35
2023-04-21T01:05:57.821Z,32.38
2023-04-21T01:06:59.655Z,32.30
2023-04-21T01:08:02.770Z,32.31
2023-04-21T01:09:05.302Z,32.30
2023-04-21T01:10:08.407Z,32.50
2023-04-21T01:11:12.252Z,32.25
2023-04-21T01:12:14.192Z,32.12
2023-04-21T01:13:20.333Z,32.46
2023-04-21T01:14:22.162Z,32.44
2023-04-21T01:15:24.777Z,32.21
2023-04-21T01:16:27.692Z,32.49
2023-04-21T01:17:31.362Z,32.60
2023-04-21T01:18:33.404Z,32.39
2023-04-21T01:19:43.055Z,32.20
2023-04-21T01:20:45.031Z,32.31
2023-04-21T01:21:46.874Z,32.32
2023-04-21T01:22:51.697Z,32.56
2023-04-21T01:23:54.210Z,32.38
2023-04-21T01:24:56.209Z,32.23
2023-04-21T01:25:58.294Z,31.73
2023-04-21T01:27:00.165Z,32.28
2023-04-21T01:28:02.674Z,32.08
2023-04-21T01:29:04.608Z,32.16
2023-04-21T01:30:08.696Z,32.29
2023-04-21T01:31:10.487Z,32.34
2023-04-21T01:32:17.274Z,32.25
2023-04-21T01:33:21.954Z,32.33
2023-04-21T01:34:24.036Z,32.39
2023-04-21T01:35:26.030Z,32.31
2023-04-21T01:36:28.101Z,32.18
2023-04-21T01:37:32.940Z,32.11
2023-04-21T01:38:38.731Z,32.29
2023-04-21T01:39:47.499Z,32.21
2023-04-21T01:40:54.914Z,32.36
2023-04-21T01:41:58.102Z,32.14
2023-04-21T01:43:00.016Z,32.24
2023-04-21T01:44:02.046Z,32.32
2023-04-21T01:45:04.509Z,32.16
2023-04-21T01:46:07.770Z,32.38
2023-04-21T01:47:11.349Z,32.30
2023-04-21T01:48:13.596Z,32.41
2023-04-21T01:49:15.750Z,32.39
2023-04-21T01:50:18.228Z,32.35
2023-04-21T01:51:20.082Z,32.24
2023-04-21T01:52:22.046Z,32.42
2023-04-21T01:53:24.016Z,32.30
2023-04-21T01:54:26.025Z,32.16
2023-04-21T01:55:28.222Z,32.25
2023-04-21T01:56:30.107Z,32.45
2023-04-21T01:57:32.075Z,32.29
2023-04-21T01:58:33.847Z,32.06
2023-04-21T01:59:37.158Z,31.96
2023-04-21T02:00:39.181Z,32.09
2023-04-21T02:01:41.332Z,32.35
2023-04-21T02:02:43.294Z,32.12
2023-04-21T02:03:46.301Z,32.40
2023-04-21T02:04:48.316Z,32.27
2023-04-21T02:05:51.205Z,32.15
2023-04-21T02:06:53.063Z,32.28
2023-04-21T02:07:55.476Z,32.31
2023-04-21T02:08:58.404Z,32.20
2023-04-21T02:10:00.343Z,32.31
2023-04-21T02:11:02.429Z,31.86
2023-04-21T02:12:04.600Z,32.20
2023-04-21T02:13:06.886Z,32.33
2023-04-21T02:14:08.764Z,32.26
2023-04-21T02:15:11.619Z,32.05
2023-04-21T02:16:14.382Z,32.46
2023-04-21T02:17:17.508Z,32.38
2023-04-21T02:18:20.245Z,32.16
2023-04-21T02:19:22.174Z,32.29
2023-04-21T02:20:24.068Z,32.04
2023-04-21T02:21:27.384Z,32.22
2023-04-21T02:22:29.254Z,32.22
2023-04-21T02:23:31.118Z,32.08
2023-04-21T02:24:33.021Z,32.12
2023-04-21T02:25:34.886Z,32.39
2023-04-21T02:26:36.780Z,32.33
2023-04-21T02:27:38.637Z,32.32
2023-04-21T02:28:40.605Z,32.16
2023-04-21T02:29:42.711Z,32.24
2023-04-21T02:30:44.657Z,32.16
2023-04-21T02:31:57.939Z,32.15
2023-04-21T02:33:05.222Z,32.10
2023-04-21T02:34:07.692Z,32.18
2023-04-21T02:35:09.871Z,32.00
2023-04-21T02:36:12.159Z,32.16
2023-04-21T02:37:13.996Z,32.41
2023-04-21T02:38:16.552Z,32.14
2023-04-21T02:39:18.682Z,32.10
2023-04-21T02:40:21.431Z,32.29
2023-04-21T02:41:23.813Z,32.02
2023-04-21T02:42:25.788Z,32.16
2023-04-21T02:43:27.654Z,32.28
2023-04-21T02:44:29.480Z,32.08
2023-04-21T02:45:31.329Z,32.30
2023-04-21T02:46:33.233Z,32.01
2023-04-21T02:47:35.170Z,32.46
2023-04-21T02:48:37.239Z,31.78
2023-04-21T02:49:43.420Z,32.23
2023-04-21T02:50:45.401Z,32.30
2023-04-21T02:51:47.206Z,32.28
2023-04-21T02:52:49.091Z,32.09
2023-04-21T02:53:51.174Z,32.08
2023-04-21T02:54:52.991Z,32.34
2023-04-21T02:55:55.837Z,32.21
2023-04-21T02:56:57.685Z,32.42
2023-04-21T02:57:59.520Z,32.02
2023-04-21T02:59:01.529Z,32.52
2023-04-21T03:00:05.073Z,32.21
2023-04-21T03:01:07.320Z,32.01
2023-04-21T03:02:09.241Z,32.16
2023-04-21T03:03:11.726Z,32.09
2023-04-21T03:04:14.206Z,31.86
2023-04-21T03:05:16.531Z,32.17
2023-04-21T03:06:18.511Z,32.05
2023-04-21T03:07:20.925Z,32.23
2023-04-21T03:08:22.744Z,31.97
2023-04-21T03:09:24.872Z,32.23
2023-04-21T03:10:26.976Z,32.10
2023-04-21T03:11:29.049Z,32.17
2023-04-21T03:12:30.910Z,32.00
2023-04-21T03:13:32.875Z,32.16
2023-04-21T03:14:34.822Z,32.03
2023-04-21T03:15:36.573Z,32.16
2023-04-21T03:16:38.974Z,31.99
2023-04-21T03:17:41.639Z,32.29
2023-04-21T03:18:43.545Z,32.23
2023-04-21T03:19:45.475Z,32.22
2023-04-21T03:20:47.340Z,32.21
2023-04-21T03:21:49.358Z,32.08
2023-04-21T03:22:54.279Z,32.13
2023-04-21T03:23:56.168Z,32.17
2023-04-21T03:24:58.331Z,32.13
2023-04-21T03:26:00.606Z,32.17
2023-04-21T03:27:03.234Z,32.22
2023-04-21T03:28:05.700Z,32.09
2023-04-21T03:29:08.109Z,32.15
2023-04-21T03:30:10.978Z,31.92
2023-04-21T03:31:13.196Z,32.21
2023-04-21T03:32:15.441Z,32.06
2023-04-21T03:33:17.821Z,32.10
2023-04-21T03:34:20.189Z,32.15
2023-04-21T03:35:22.730Z,31.98
2023-04-21T03:36:24.995Z,32.00
2023-04-21T03:37:27.230Z,32.17
2023-04-21T03:38:30.025Z,32.25
2023-04-21T03:39:32.634Z,32.18
2023-04-21T03:40:34.821Z,32.20
2023-04-21T03:41:37.242Z,31.98
2023-04-21T03:42:39.588Z,31.98
2023-04-21T03:43:41.918Z,32.14
2023-04-21T03:44:44.103Z,32.03
2023-04-21T03:45:46.583Z,31.89
2023-04-21T03:46:48.871Z,32.09
2023-04-21T03:47:55.203Z,31.95
2023-04-21T03:48:57.568Z,31.85
2023-04-21T03:49:59.769Z,32.13
2023-04-21T03:51:02.011Z,31.93
2023-04-21T03:52:04.472Z,32.12
2023-04-21T03:53:06.722Z,32.19
2023-04-21T03:54:09.131Z,31.96
2023-04-21T03:55:11.931Z,32.25
2023-04-21T03:56:14.284Z,32.09
2023-04-21T03:57:16.694Z,32.23
2023-04-21T03:58:18.939Z,32.01
2023-04-21T03:59:21.614Z,31.94
2023-04-21T04:00:24.182Z,32.14
2023-04-21T04:01:27.924Z,32.00
2023-04-21T04:02:30.592Z,32.12
2023-04-21T04:03:33.371Z,32.13
2023-04-21T04:04:36.631Z,31.98
2023-04-21T04:05:41.845Z,31.95
2023-04-21T04:06:44.583Z,32.08
2023-04-21T04:07:46.883Z,32.05
2023-04-21T04:08:50.263Z,32.02
2023-04-21T04:09:54.535Z,31.88
2023-04-21T04:10:57.166Z,32.14
2023-04-21T04:12:02.057Z,31.93
2023-04-21T04:13:04.837Z,31.95
2023-04-21T04:14:11.055Z,31.94
2023-04-21T04:15:15.740Z,31.98
2023-04-21T04:16:18.490Z,32.08
2023-04-21T04:17:24.901Z,31.92
2023-04-21T04:18:27.369Z,32.03
2023-04-21T04:19:33.922Z,31.96
2023-04-21T04:20:37.771Z,32.21
2023-04-21T04:21:40.607Z,31.96
2023-04-21T04:22:42.908Z,32.05
2023-04-21T04:23:45.341Z,32.13
2023-04-21T04:24:48.036Z,32.22
2023-04-21T04:25:51.988Z,32.17
2023-04-21T04:26:58.273Z,31.90
2023-04-21T04:28:00.918Z,32.03
2023-04-21T04:29:04.030Z,32.10
2023-04-21T04:30:07.069Z,31.96
2023-04-21T04:31:09.377Z,32.02
2023-04-21T04:32:11.744Z,32.13
2023-04-21T04:33:15.202Z,32.15
2023-04-21T04:34:17.949Z,32.00
2023-04-21T04:35:20.271Z,31.90
2023-04-21T04:36:23.038Z,31.85
2023-04-21T04:37:28.898Z,32.02
2023-04-21T04:38:35.052Z,32.09
2023-04-21T04:39:37.655Z,31.96
2023-04-21T04:40:40.195Z,32.11
2023-04-21T04:41:44.166Z,31.92
2023-04-21T04:42:47.010Z,32.11
2023-04-21T04:43:49.584Z,32.14
2023-04-21T04:44:56.089Z,32.08
2023-04-21T04:45:59.060Z,32.04
2023-04-21T04:47:01.381Z,32.25
2023-04-21T04:48:05.919Z,32.08
2023-04-21T04:49:09.286Z,32.05
2023-04-21T04:50:11.710Z,31.96
2023-04-21T04:51:14.068Z,31.96
2023-04-21T04:52:16.312Z,31.88
2023-04-21T04:53:18.560Z,32.14
2023-04-21T04:54:20.973Z,32.02
2023-04-21T04:55:23.745Z,32.24
2023-04-21T04:56:26.187Z,31.95
2023-04-21T04:57:28.419Z,32.25
2023-04-21T04:58:31.044Z,32.08
2023-04-21T04:59:33.667Z,31.90
2023-04-21T05:00:37.789Z,31.93
2023-04-21T05:01:42.043Z,32.20
2023-04-21T05:02:44.869Z,32.20
2023-04-21T05:03:47.703Z,31.84
2023-04-21T05:04:50.903Z,31.78
2023-04-21T05:05:54.680Z,32.11
2023-04-21T05:06:56.856Z,31.97
2023-04-21T05:08:00.220Z,31.84
2023-04-21T05:09:02.812Z,31.82
2023-04-21T05:10:05.585Z,32.00
2023-04-21T05:11:09.069Z,32.05
2023-04-21T05:12:11.876Z,32.04
2023-04-21T05:13:18.816Z,32.06
2023-04-21T05:14:21.303Z,31.87
2023-04-21T05:15:24.293Z,32.04
2023-04-21T05:16:26.589Z,31.93
2023-04-21T05:17:31.256Z,31.93
2023-04-21T05:18:33.789Z,32.06
2023-04-21T05:19:37.494Z,32.16
2023-04-21T05:20:42.658Z,31.92
2023-04-21T05:21:44.929Z,31.93
2023-04-21T05:22:47.534Z,31.84
2023-04-21T05:23:49.796Z,31.92
2023-04-21T05:24:52.597Z,32.07
2023-04-21T05:25:54.960Z,31.81
2023-04-21T05:26:57.336Z,32.06
2023-04-21T05:27:59.645Z,32.20
2023-04-21T05:29:02.496Z,31.81
2023-04-21T05:30:05.214Z,31.86
2023-04-21T05:31:08.661Z,31.98
2023-04-21T05:32:12.543Z,32.06
2023-04-21T05:33:17.950Z,32.15
2023-04-21T05:34:20.413Z,32.10
2023-04-21T05:35:23.033Z,32.27
2023-04-21T05:36:25.744Z,32.30
2023-04-21T05:37:28.016Z,32.29
2023-04-21T05:38:30.205Z,32.25
2023-04-21T05:39:33.517Z,32.16
2023-04-21T05:40:35.859Z,32.26
2023-04-21T05:41:38.286Z,32.64
2023-04-21T05:42:40.787Z,32.44
2023-04-21T05:43:43.168Z,32.57
2023-04-21T05:44:45.756Z,32.58
2023-04-21T05:45:48.733Z,32.36
2023-04-21T05:46:51.316Z,32.68
2023-04-21T05:47:54.320Z,32.55
2023-04-21T05:48:56.886Z,32.48
2023-04-21T05:49:59.142Z,32.54
2023-04-21T05:51:14.863Z,32.59
2023-04-21T05:52:17.925Z,32.61
2023-04-21T05:53:20.233Z,32.64
2023-04-21T05:54:23.239Z,32.37
2023-04-21T05:55:25.993Z,32.64
2023-04-21T05:56:28.268Z,32.48
2023-04-21T05:57:30.589Z,32.64
2023-04-21T05:58:33.786Z,32.55
2023-04-21T05:59:36.151Z,32.45
2023-04-21T06:00:41.177Z,32.45
2023-04-21T06:01:43.886Z,32.34
2023-04-21T06:02:46.305Z,32.64
2023-04-21T06:03:50.575Z,32.77
2023-04-21T06:04:54.061Z,32.71
2023-04-21T06:05:57.397Z,32.56
2023-04-21T06:07:07.421Z,32.55
2023-04-21T06:08:09.889Z,32.54
2023-04-21T06:09:12.301Z,32.52
2023-04-21T06:10:16.357Z,32.68
2023-04-21T06:11:18.800Z,32.50
2023-04-21T06:12:21.169Z,32.73
2023-04-21T06:13:23.683Z,32.68
2023-04-21T06:14:26.114Z,32.80
2023-04-21T06:15:29.988Z,32.56
2023-04-21T06:16:34.450Z,32.71
2023-04-21T06:17:37.243Z,32.90
2023-04-21T06:18:39.566Z,32.89
2023-04-21T06:19:45.271Z,32.74
2023-04-21T06:20:54.681Z,32.79
2023-04-21T06:21:57.763Z,32.79
2023-04-21T06:23:00.405Z,33.01
2023-04-21T06:24:02.864Z,33.04
2023-04-21T06:25:05.923Z,33.26
2023-04-21T06:26:09.672Z,32.90
2023-04-21T06:27:13.303Z,32.98
2023-04-21T06:28:15.568Z,33.21
2023-04-21T06:29:18.437Z,33.16
2023-04-21T06:30:21.500Z,33.09
2023-04-21T06:31:27.095Z,33.19
2023-04-21T06:32:30.867Z,33.17
2023-04-21T06:33:33.843Z,33.10
2023-04-21T06:34:37.468Z,33.48
2023-04-21T06:35:43.014Z,33.28
2023-04-21T06:36:45.628Z,33.21
2023-04-21T06:37:48.140Z,33.44
2023-04-21T06:38:54.164Z,33.34
2023-04-21T06:39:56.627Z,33.40
2023-04-21T06:40:59.135Z,33.66
2023-04-21T06:42:02.536Z,33.47
2023-04-21T06:43:04.786Z,33.50
2023-04-21T06:44:14.063Z,33.57
2023-04-21T06:45:16.447Z,33.29
2023-04-21T06:46:18.943Z,33.63
2023-04-21T06:47:22.659Z,33.61
2023-04-21T06:48:25.194Z,33.56
2023-04-21T06:49:29.071Z,33.55
2023-04-21T06:50:31.614Z,33.69
2023-04-21T06:51:34.095Z,33.81
2023-04-21T06:52:36.664Z,33.60
2023-04-21T06:53:38.903Z,33.73
2023-04-21T06:54:42.710Z,33.74
2023-04-21T06:55:45.458Z,33.81
2023-04-21T06:56:47.840Z,33.72
2023-04-21T06:57:50.283Z,33.80
2023-04-21T06:58:52.951Z,33.61
2023-04-21T06:59:55.233Z,33.75
2023-04-21T07:01:00.967Z,33.84
2023-04-21T07:03:22.900Z,33.58
2023-04-21T07:04:29.975Z,33.80
2023-04-21T07:05:32.652Z,33.94
2023-04-21T07:06:35.087Z,33.39
2023-04-21T07:07:37.466Z,33.62
2023-04-21T07:08:41.182Z,33.81
2023-04-21T07:09:47.327Z,33.68
2023-04-21T07:10:49.761Z,33.78
2023-04-21T07:11:52.797Z,33.74
2023-04-21T07:12:55.800Z,33.82
2023-04-21T07:14:01.261Z,33.80
2023-04-21T07:15:03.900Z,33.47
2023-04-21T07:16:08.328Z,33.62
2023-04-21T07:17:11.154Z,33.75
2023-04-21T07:18:13.666Z,33.71
2023-04-21T07:19:16.105Z,33.70
2023-04-21T07:20:18.910Z,33.84
2023-04-21T07:21:22.141Z,34.02
2023-04-21T07:22:24.413Z,33.57
2023-04-21T07:23:26.748Z,33.63
2023-04-21T07:24:29.124Z,33.67
2023-04-21T07:25:31.687Z,33.44
2023-04-21T07:26:34.654Z,33.49
2023-04-21T07:27:37.311Z,33.63
2023-04-21T07:28:42.677Z,33.44
2023-04-21T07:29:45.016Z,33.65
2023-04-21T07:30:47.650Z,33.56
2023-04-21T07:31:50.406Z,33.52
2023-04-21T07:32:53.844Z,33.35
2023-04-21T07:33:56.133Z,33.66
2023-04-21T07:34:59.544Z,33.50
2023-04-21T07:36:01.997Z,33.58
2023-04-21T07:37:04.335Z,33.91
2023-04-21T07:38:06.810Z,33.63
2023-04-21T07:39:09.077Z,33.66
2023-04-21T07:40:11.867Z,33.63
2023-04-21T07:41:14.976Z,33.58
2023-04-21T07:42:17.336Z,33.34
2023-04-21T07:43:22.450Z,33.40
2023-04-21T07:44:24.987Z,33.40
2023-04-21T07:45:27.431Z,33.65
2023-04-21T07:46:32.392Z,33.60
2023-04-21T07:47:34.865Z,33.56
2023-04-21T07:48:37.175Z,33.70
2023-04-21T07:49:40.777Z,33.55
2023-04-21T07:50:43.128Z,33.54
2023-04-21T07:51:45.916Z,33.50
2023-04-21T07:52:48.427Z,33.68
2023-04-21T07:53:51.175Z,33.39
2023-04-21T07:54:53.550Z,33.43
2023-04-21T07:55:55.945Z,33.40
2023-04-21T07:56:58.459Z,33.42
2023-04-21T07:58:01.436Z,33.42
2023-04-21T07:59:03.976Z,33.66
2023-04-21T08:00:08.426Z,33.42
2023-04-21T08:01:10.909Z,33.27
2023-04-21T08:02:13.502Z,33.55
2023-04-21T08:03:17.436Z,33.35
2023-04-21T08:04:20.120Z,33.47
2023-04-21T08:05:22.887Z,33.45
2023-04-21T08:06:25.415Z,33.39
2023-04-21T08:07:27.750Z,33.26
2023-04-21T08:08:31.951Z,33.45
2023-04-21T08:09:34.312Z,33.46
2023-04-21T08:10:36.636Z,33.35
2023-04-21T08:11:38.992Z,33.43
2023-04-21T08:12:41.820Z,33.52
2023-04-21T08:13:44.168Z,33.33
2023-04-21T08:14:46.308Z,33.43
2023-04-21T08:15:49.151Z,33.31
2023-04-21T08:16:51.635Z,33.33
2023-04-21T08:17:55.344Z,33.22
2023-04-21T08:18:58.141Z,33.21
2023-04-21T08:20:00.869Z,33.32
2023-04-21T08:21:03.235Z,33.27
2023-04-21T08:22:05.827Z,33.29
2023-04-21T08:23:10.278Z,33.46
2023-04-21T08:24:12.984Z,33.54
2023-04-21T08:25:16.153Z,33.42
2023-04-21T08:26:21.232Z,33.24
2023-04-21T08:27:23.627Z,33.22
2023-04-21T08:28:26.036Z,33.33
2023-04-21T08:29:28.748Z,33.39
2023-04-21T08:30:31.517Z,33.51
2023-04-21T08:31:33.947Z,33.21
2023-04-21T08:32:36.550Z,33.23
2023-04-21T08:33:46.744Z,33.16
2023-04-21T08:34:56.114Z,33.37
2023-04-21T08:36:05.507Z,33.37
2023-04-21T08:37:10.237Z,33.43
2023-04-21T08:38:12.604Z,33.18
2023-04-21T08:39:17.167Z,33.15
2023-04-21T08:40:19.755Z,33.36
2023-04-21T08:41:23.104Z,33.30
2023-04-21T08:42:25.393Z,33.42
2023-04-21T08:43:28.717Z,33.38
2023-04-21T08:44:31.149Z,33.23
2023-04-21T08:45:34.241Z,33.41
2023-04-21T08:46:37.264Z,33.28
2023-04-21T08:47:41.656Z,33.21
2023-04-21T08:48:45.463Z,33.27
2023-04-21T08:49:50.366Z,33.28
2023-04-21T08:50:53.936Z,33.04
2023-04-21T08:51:56.257Z,33.11
2023-04-21T08:52:59.010Z,33.09
2023-04-21T08:54:01.640Z,33.14
2023-04-21T08:55:07.385Z,33.32
2023-04-21T08:56:11.759Z,33.22
2023-04-21T08:57:16.326Z,33.06
2023-04-21T08:58:18.788Z,33.05
2023-04-21T08:59:21.792Z,33.01
2023-04-21T09:00:24.891Z,33.03
2023-04-21T09:01:28.018Z,32.98
2023-04-21T09:02:31.143Z,32.99
2023-04-21T09:03:33.817Z,33.07
2023-04-21T09:04:43.120Z,32.99
2023-04-21T09:05:57.163Z,32.67
2023-04-21T09:06:59.514Z,33.08
2023-04-21T09:08:10.681Z,33.11
2023-04-21T09:09:12.741Z,32.80
2023-04-21T09:10:14.611Z,32.97
2023-04-21T09:11:17.082Z,33.06
2023-04-21T09:12:19.901Z,32.98
2023-04-21T09:13:30.061Z,33.24
2023-04-21T09:14:33.734Z,33.03
2023-04-21T09:15:44.772Z,32.85
2023-04-21T09:17:00.040Z,32.86
2023-04-21T09:18:02.218Z,32.72
2023-04-21T09:19:16.035Z,32.54
2023-04-21T09:20:23.224Z,32.89
2023-04-21T09:21:32.001Z,32.73
2023-04-21T09:22:34.192Z,32.45
2023-04-21T09:23:47.488Z,32.74
2023-04-21T09:24:58.099Z,32.44
2023-04-21T09:26:03.595Z,32.48
2023-04-21T09:27:05.485Z,32.38
2023-04-21T09:28:14.795Z,32.39
2023-04-21T09:29:18.542Z,32.44
2023-04-21T09:30:21.402Z,32.41
2023-04-21T09:31:25.479Z,32.49
2023-04-21T09:32:27.667Z,32.65
2023-04-21T09:33:42.521Z,32.36
2023-04-21T09:34:51.551Z,31.98
2023-04-21T09:35:53.817Z,32.33
2023-04-21T09:37:03.707Z,32.26
2023-04-21T09:38:12.494Z,32.34
2023-04-21T09:39:34.490Z,31.92
2023-04-21T09:40:37.456Z,32.12
2023-04-21T09:41:40.812Z,32.15
2023-04-21T09:42:44.472Z,31.95
2023-04-21T09:43:47.131Z,32.18
2023-04-21T09:44:55.360Z,32.35
2023-04-21T09:46:10.063Z,32.36
2023-04-21T09:47:13.346Z,32.41
2023-04-21T09:48:20.608Z,32.55
2023-04-21T09:49:29.204Z,32.63
2023-04-21T09:51:15.348Z,32.54
2023-04-21T09:52:17.663Z,32.40
2023-04-21T09:53:28.720Z,32.37
2023-04-21T09:54:36.824Z,32.40
2023-04-21T09:55:41.732Z,32.48
2023-04-21T09:56:49.339Z,32.31
2023-04-21T09:57:58.484Z,32.46
2023-04-21T09:59:06.502Z,32.33
2023-04-21T10:00:12.404Z,32.49
2023-04-21T10:01:15.613Z,32.40
2023-04-21T10:02:20.896Z,32.45
2023-04-21T10:03:28.960Z,32.41
2023-04-21T10:04:34.443Z,32.25
2023-04-21T10:05:41.262Z,32.66
2023-04-21T10:06:45.951Z,32.43
2023-04-21T10:07:50.140Z,32.52
2023-04-21T10:08:53.978Z,32.44
2023-04-21T10:09:59.566Z,32.58
2023-04-21T10:11:03.212Z,32.40
2023-04-21T10:12:09.023Z,32.25
2023-04-21T10:13:18.866Z,32.31
2023-04-21T10:14:28.132Z,32.40
2023-04-21T10:15:41.425Z,32.48
2023-04-21T10:16:44.024Z,32.36
2023-04-21T10:17:47.333Z,32.46
2023-04-21T10:18:49.259Z,32.57
2023-04-21T10:19:57.180Z,32.36
2023-04-21T10:21:18.003Z,32.47
2023-04-21T10:22:30.639Z,32.16
2023-04-21T10:23:46.796Z,32.30
2023-04-21T10:24:49.920Z,32.47
2023-04-21T10:25:51.892Z,32.52
2023-04-21T10:26:55.314Z,32.45
2023-04-21T10:27:57.283Z,32.38
2023-04-21T10:29:07.026Z,32.52
2023-04-21T10:30:20.768Z,32.66
2023-04-21T10:31:39.701Z,32.48
2023-04-21T10:32:43.456Z,31.91
2023-04-21T10:34:13.026Z,32.16
2023-04-21T10:35:24.184Z,32.09
2023-04-21T10:36:27.018Z,32.51
2023-04-21T10:37:31.671Z,32.46
2023-04-21T10:38:44.464Z,32.52
2023-04-21T10:39:54.683Z,32.71
2023-04-21T10:41:29.651Z,32.46
2023-04-21T10:42:36.956Z,32.45
2023-04-21T10:43:49.314Z,32.59
2023-04-21T10:45:05.712Z,32.76
2023-04-21T10:46:46.651Z,32.33
2023-04-21T10:47:51.393Z,32.63
2023-04-21T10:48:53.671Z,32.66
2023-04-21T10:50:00.408Z,32.85
2023-04-21T10:51:04.287Z,32.96
2023-04-21T10:52:12.222Z,32.54
2023-04-21T10:53:17.518Z,32.92
2023-04-21T10:54:22.664Z,32.73
2023-04-21T10:55:30.083Z,32.63
2023-04-21T10:56:33.163Z,32.65
2023-04-21T10:57:37.132Z,32.77
2023-04-21T10:58:41.417Z,32.64
2023-04-21T10:59:45.187Z,32.79
2023-04-21T11:00:47.702Z,32.57
2023-04-21T11:01:49.838Z,32.88
2023-04-21T11:02:59.948Z,32.70
2023-04-21T11:04:02.079Z,32.73
2023-04-21T11:05:07.427Z,32.84
2023-04-21T11:06:20.569Z,32.81
2023-04-21T11:07:24.328Z,32.72
2023-04-21T11:08:26.143Z,32.67
2023-04-21T11:09:28.345Z,32.54
2023-04-21T11:10:30.357Z,32.56
2023-04-21T11:11:32.442Z,32.74
2023-04-21T11:12:41.937Z,32.62
2023-04-21T11:13:43.861Z,32.31
2023-04-21T11:14:50.488Z,32.55
2023-04-21T11:16:07.945Z,32.41
2023-04-21T11:17:18.700Z,32.03
2023-04-21T11:18:20.875Z,32.59
2023-04-21T11:19:25.142Z,32.54
2023-04-21T11:20:27.431Z,32.77
2023-04-21T11:21:30.462Z,32.65
2023-04-21T11:22:33.584Z,32.51
2023-04-21T11:23:36.461Z,32.12
2023-04-21T11:24:43.904Z,32.47
2023-04-21T11:25:47.921Z,32.66
2023-04-21T11:26:51.999Z,32.64
2023-04-21T11:27:56.604Z,32.64
2023-04-21T11:29:02.770Z,32.84
2023-04-21T11:30:05.915Z,32.65
2023-04-21T11:31:08.273Z,32.69
2023-04-21T11:32:11.292Z,32.59
2023-04-21T11:33:13.613Z,32.56
2023-04-21T11:34:17.524Z,32.56
2023-04-21T11:35:20.055Z,32.62
2023-04-21T11:36:22.880Z,32.36
2023-04-21T11:37:28.180Z,32.60
2023-04-21T11:38:41.299Z,32.67
2023-04-21T11:39:44.330Z,32.63
2023-04-21T11:40:50.203Z,32.79
2023-04-21T11:41:52.792Z,32.84
2023-04-21T11:42:55.090Z,32.73
2023-04-21T11:43:57.162Z,32.76
2023-04-21T11:44:59.456Z,32.65
2023-04-21T11:46:27.544Z,32.45
2023-04-21T11:47:29.650Z,32.63
2023-04-21T11:48:31.777Z,32.86
2023-04-21T11:49:43.799Z,32.71
2023-04-21T11:50:50.757Z,32.79
2023-04-21T11:51:52.671Z,32.69
2023-04-21T11:52:54.711Z,32.89
2023-04-21T11:54:00.405Z,32.72
2023-04-21T11:55:16.118Z,32.75
2023-04-21T11:56:25.159Z,32.59
2023-04-21T11:57:29.689Z,32.49
2023-04-21T11:58:32.594Z,32.75
2023-04-21T11:59:38.209Z,32.76
2023-04-21T12:00:41.188Z,32.84
2023-04-21T12:01:51.454Z,32.89
2023-04-21T12:02:57.454Z,32.75
2023-04-21T12:03:59.682Z,32.78
2023-04-21T12:05:11.234Z,32.79
2023-04-21T12:06:25.394Z,32.66
2023-04-21T12:07:29.816Z,33.16
2023-04-21T12:08:34.503Z,32.71
2023-04-21T12:09:36.909Z,32.84
2023-04-21T12:10:38.928Z,32.93
2023-04-21T12:11:41.228Z,32.79
2023-04-21T12:12:44.301Z,32.66
2023-04-21T12:13:46.676Z,32.80
2023-04-21T12:14:50.698Z,33.00
2023-04-21T12:15:52.773Z,32.83
2023-04-21T12:16:57.450Z,32.85
2023-04-21T12:17:59.450Z,32.83
2023-04-21T12:19:01.605Z,32.96
2023-04-21T12:20:12.123Z,32.93
2023-04-21T12:21:16.686Z,32.80
2023-04-21T12:22:18.966Z,32.80
2023-04-21T12:23:20.945Z,32.81
2023-04-21T12:24:23.257Z,32.83
2023-04-21T12:25:25.997Z,32.88
2023-04-21T12:26:27.899Z,32.82
2023-04-21T12:27:29.835Z,32.71
2023-04-21T12:28:31.952Z,32.91
2023-04-21T12:29:38.477Z,32.89
2023-04-21T12:30:42.360Z,32.90
2023-04-21T12:31:44.985Z,32.92
2023-04-21T12:32:48.603Z,32.74
2023-04-21T12:33:50.750Z,32.97
2023-04-21T12:34:52.794Z,32.77
2023-04-21T12:35:55.046Z,32.26
2023-04-21T12:36:57.174Z,32.91
2023-04-21T12:37:59.060Z,33.00
2023-04-21T12:39:00.985Z,32.91
2023-04-21T12:40:03.620Z,32.50
2023-04-21T12:41:06.012Z,32.82
2023-04-21T12:42:08.229Z,32.85
2023-04-21T12:43:10.134Z,33.10
2023-04-21T12:44:12.018Z,32.91
2023-04-21T12:45:15.331Z,32.94
2023-04-21T12:46:17.635Z,32.93
2023-04-21T12:47:19.542Z,32.83
2023-04-21T12:48:21.542Z,32.82
2023-04-21T12:49:24.667Z,32.90
2023-04-21T12:50:26.586Z,32.92
2023-04-21T12:51:28.649Z,32.53
2023-04-21T12:52:30.730Z,32.91
2023-04-21T12:53:32.831Z,32.78
2023-04-21T12:54:35.805Z,32.83
2023-04-21T12:55:39.029Z,32.78
2023-04-21T12:56:42.313Z,32.97
2023-04-21T12:57:44.681Z,32.83
2023-04-21T12:58:48.367Z,32.82
2023-04-21T12:59:50.274Z,32.72
2023-04-21T13:00:52.307Z,32.66
2023-04-21T13:01:54.837Z,32.57
2023-04-21T13:02:57.078Z,32.65
2023-04-21T13:04:00.514Z,32.56
2023-04-21T13:05:05.353Z,32.61
2023-04-21T13:06:09.049Z,32.72
2023-04-21T13:07:11.286Z,32.46
2023-04-21T13:08:13.508Z,32.74
2023-04-21T13:09:18.296Z,32.60
2023-04-21T13:10:20.971Z,32.55
2023-04-21T13:11:23.112Z,32.67
2023-04-21T13:12:25.389Z,32.71
2023-04-21T13:13:28.804Z,32.66
2023-04-21T13:14:30.757Z,32.76
2023-04-21T13:15:33.334Z,32.73
2023-04-21T13:16:35.435Z,32.62
2023-04-21T13:17:37.300Z,32.57
2023-04-21T13:18:39.814Z,32.83
2023-04-21T13:19:41.901Z,32.42
2023-04-21T13:20:44.049Z,32.57
2023-04-21T13:21:47.196Z,32.91
2023-04-21T13:22:49.126Z,32.54
2023-04-21T13:23:50.998Z,32.72
2023-04-21T13:24:52.840Z,32.67
2023-04-21T13:25:55.022Z,32.69
2023-04-21T13:26:58.557Z,32.46
2023-04-21T13:28:01.320Z,32.64
2023-04-21T13:29:04.255Z,32.85
2023-04-21T13:30:16.005Z,32.53
2023-04-21T13:31:18.122Z,32.78
2023-04-21T13:32:20.281Z,32.60
2023-04-21T13:33:22.903Z,32.62
2023-04-21T13:34:25.034Z,32.58
2023-04-21T13:35:27.051Z,32.72
2023-04-21T13:36:30.149Z,32.60
2023-04-21T13:37:33.012Z,32.49
2023-04-21T13:38:35.646Z,32.73
2023-04-21T13:39:37.611Z,32.45
2023-04-21T13:40:39.570Z,32.60
2023-04-21T13:41:41.958Z,32.68
2023-04-21T13:42:44.173Z,32.68
2023-04-21T13:43:46.813Z,32.82